Bookmark and Share
Track history (hours):
 

Baltic Frost

Last reported at 2014-Apr-19 01:06 UTC. Time now 2014-Apr-24 02:00 UTC.
Position N 50°15' W 001°27'.

Length 182 m; draft 7.2 m.

Type: Ship. MMSI: 256495000.

NotesDate/timePositionNaut miles runAvg speedWind from/ knotsBaromVisibWave heightAir tempDewpointWater temp
2014-Apr-19 01:06N 50°15' W 001°27'813.9
2014-Apr-19 00:33N 50°17' W 001°15'1212.4
2014-Apr-18 23:33N 50°20' W 000°57'3812.2
2014-Apr-18 20:25N 50°31' E 000°01'1315.1
2014-Apr-18 19:33N 50°34' E 000°20'1615.8
2014-Apr-18 18:33N 50°41' E 000°43'1615.9
2014-Apr-18 17:33N 50°51' E 001°02'1514.7
2014-Apr-18 16:32N 51°01' E 001°21'1313.0
2014-Apr-18 15:33N 51°09' E 001°36'1211.9
2014-Apr-18 14:34N 51°18' E 001°49'1313.0
2014-Apr-18 13:34N 51°29' E 002°00'1514.4
2014-Apr-18 12:29N 51°40' E 002°18'6014.1
2014-Apr-18 08:16N 52°03' E 003°47'811.8
2014-Apr-18 07:34N 52°01' E 003°60'1312.9
2014-Apr-18 06:33N 51°54' E 004°18'2 2.2
2014-Apr-18 05:28N 51°54' E 004°21'0 0.0
2014-Apr-18 04:33N 51°54' E 004°21'0 0.0
2014-Apr-18 03:33N 51°54' E 004°21'0 0.0
2014-Apr-18 02:32N 51°54' E 004°21'0 0.0
2014-Apr-18 01:26N 51°54' E 004°21'0 0.0
2014-Apr-18 00:32N 51°54' E 004°21'0 0.0
2014-Apr-17 23:31N 51°54' E 004°21'0 0.0
2014-Apr-17 22:31N 51°54' E 004°21'0 0.0
2014-Apr-17 21:30N 51°54' E 004°21'0 0.0
2014-Apr-17 20:33N 51°54' E 004°21'0 0.0
2014-Apr-17 19:29N 51°54' E 004°21'0 0.0
2014-Apr-17 18:26N 51°54' E 004°21'0 0.0
2014-Apr-17 17:29N 51°54' E 004°21'0 0.0
2014-Apr-17 16:31N 51°54' E 004°21'0 0.0
2014-Apr-17 15:28N 51°54' E 004°21'0 0.0
2014-Apr-17 14:33N 51°54' E 004°21'0 0.0
2014-Apr-17 13:33N 51°54' E 004°21'0 0.0
2014-Apr-17 12:32N 51°54' E 004°21'0 0.0
2014-Apr-17 11:32N 51°54' E 004°21'0 0.0
2014-Apr-17 10:32N 51°54' E 004°21'0 0.0
2014-Apr-17 09:31N 51°54' E 004°21'0 0.0
2014-Apr-17 08:31N 51°54' E 004°21'0 0.0
2014-Apr-17 07:18N 51°54' E 004°21'0 0.0
2014-Apr-17 06:30N 51°54' E 004°21'0 0.0
2014-Apr-17 05:29N 51°54' E 004°21'0 0.0
2014-Apr-17 04:26N 51°54' E 004°21'0 0.0
2014-Apr-17 03:32N 51°54' E 004°21'0 0.0
2014-Apr-17 02:31N 51°54' E 004°21'0 0.0
2014-Apr-17 01:28N 51°54' E 004°21'0 0.0
2014-Apr-17 00:33N 51°54' E 004°21'0 0.0
2014-Apr-16 23:33N 51°54' E 004°21'0 0.0
2014-Apr-16 22:32N 51°54' E 004°21'0 0.0
2014-Apr-16 21:32N 51°54' E 004°21'0 0.0
2014-Apr-16 20:32N 51°54' E 004°21'0 0.0
2014-Apr-16 19:31N 51°54' E 004°21'2 1.7
2014-Apr-16 18:33N 51°54' E 004°19'1 1.1
2014-Apr-16 17:29N 51°53' E 004°17'0 0.0
2014-Apr-16 16:32N 51°53' E 004°17'0 0.0
2014-Apr-16 15:19N 51°53' E 004°17'0 0.0
2014-Apr-16 14:31N 51°53' E 004°17'0 0.0
2014-Apr-16 13:12N 51°53' E 004°17'0 0.0
2014-Apr-16 12:33N 51°53' E 004°17'0 0.0
2014-Apr-16 11:32N 51°53' E 004°17'0 0.0
2014-Apr-16 10:26N 51°53' E 004°17'0 0.0
2014-Apr-16 09:23N 51°53' E 004°17'0 0.0
2014-Apr-16 08:28N 51°53' E 004°17'0 0.0
2014-Apr-16 07:31N 51°53' E 004°17'0 0.0
2014-Apr-16 06:31N 51°53' E 004°17'0 0.0
2014-Apr-16 05:24N 51°53' E 004°17'0 0.0
2014-Apr-16 04:30N 51°53' E 004°17'1 1.0
2014-Apr-16 03:34N 51°54' E 004°17'1110.8
2014-Apr-16 02:33N 51°60' E 004°02'8 8.1
2014-Apr-16 01:33N 51°55' E 004°13'0 0.2
2014-Apr-16 00:33N 51°55' E 004°13'0 0.0
2014-Apr-15 23:26N 51°55' E 004°13'0 0.0
2014-Apr-15 22:23N 51°55' E 004°13'0 0.0
2014-Apr-15 21:26N 51°55' E 004°13'0 0.0
2014-Apr-15 20:31N 51°55' E 004°13'0 0.0
2014-Apr-15 19:31N 51°55' E 004°13'0 0.0
2014-Apr-15 18:06N 51°55' E 004°13'0 0.0
2014-Apr-15 17:24N 51°55' E 004°13'0 0.0
2014-Apr-15 16:29N 51°55' E 004°13'0 0.0
2014-Apr-15 15:14N 51°55' E 004°13'0 0.0
2014-Apr-15 08:33N 51°55' E 004°13'0 0.0
2014-Apr-15 07:33N 51°55' E 004°13'1 0.6
2014-Apr-15 05:34N 51°56' E 004°11'7212.0
2014-Apr-14 23:33N 51°33' E 002°21'1414.0
2014-Apr-14 22:33N 51°21' E 002°09'1313.1
2014-Apr-14 21:33N 51°11' E 001°57'1313.4
2014-Apr-14 20:33N 51°03' E 001°40'3511.5
2014-Apr-14 17:29N 50°34' E 001°08'1112.3
2014-Apr-14 16:34N 50°28' E 000°53'1212.2
2014-Apr-14 15:34N 50°24' E 000°35'1211.6
2014-Apr-14 14:34N 50°20' E 000°18'4611.6
2014-Apr-14 10:33N 49°38' W 000°11'9 8.9
2014-Apr-14 09:33N 49°31' W 000°02'8 8.3
2014-Apr-14 08:33N 49°29' E 000°10'0 0.5
2014-Apr-14 07:32N 49°29' E 000°11'0 0.0
2014-Apr-14 06:33N 49°29' E 000°11'0 0.0
2014-Apr-14 05:33N 49°29' E 000°11'0 0.0
2014-Apr-13 22:33N 49°29' E 000°11'0 0.0
2014-Apr-13 21:33N 49°29' E 000°11'0 0.0
2014-Apr-13 20:33N 49°29' E 000°11'0 0.0
2014-Apr-13 19:33N 49°29' E 000°11'0 0.0
2014-Apr-13 18:33N 49°29' E 000°11'0 0.0
2014-Apr-13 17:33N 49°29' E 000°11'0 0.0
2014-Apr-13 16:33N 49°29' E 000°11'0 0.0
2014-Apr-13 15:33N 49°29' E 000°11'0 0.0
2014-Apr-13 14:33N 49°29' E 000°11'0 0.0
2014-Apr-13 13:33N 49°29' E 000°11'0 0.0
2014-Apr-13 12:33N 49°29' E 000°11'0 0.0
2014-Apr-13 11:33N 49°29' E 000°11'0 0.0
2014-Apr-13 10:33N 49°29' E 000°11'0 0.0
2014-Apr-13 09:33N 49°29' E 000°11'0 0.0
2014-Apr-13 08:33N 49°29' E 000°11'0 0.0
2014-Apr-13 07:33N 49°29' E 000°11'0 0.0
2014-Apr-13 06:33N 49°29' E 000°11'0 0.0
2014-Apr-13 05:33N 49°29' E 000°11'0 0.0
2014-Apr-13 04:33N 49°29' E 000°11'0 0.0
2014-Apr-13 03:33N 49°29' E 000°11'0 0.0
2014-Apr-13 02:33N 49°29' E 000°11'0 0.0
2014-Apr-13 01:33N 49°29' E 000°11'0 0.0
2014-Apr-13 00:33N 49°29' E 000°11'0 0.0
2014-Apr-12 23:33N 49°29' E 000°11'0 0.0
2014-Apr-12 22:33N 49°29' E 000°11'0 0.0
2014-Apr-12 21:33N 49°29' E 000°11'0 0.0
2014-Apr-12 20:33N 49°29' E 000°11'0 0.0
2014-Apr-12 19:33N 49°29' E 000°11'0 0.0
2014-Apr-12 18:33N 49°29' E 000°11'0 0.0
2014-Apr-12 17:33N 49°29' E 000°11'0 0.0
2014-Apr-12 16:33N 49°29' E 000°11'0 0.0
2014-Apr-12 15:33N 49°29' E 000°11'0 0.0
2014-Apr-12 14:33N 49°29' E 000°11'0 0.0
2014-Apr-12 13:33N 49°29' E 000°11'0 0.0
2014-Apr-12 12:33N 49°29' E 000°11'0 0.0
2014-Apr-12 11:33N 49°29' E 000°11'0 0.0
2014-Apr-12 10:33N 49°29' E 000°11'0 0.0
2014-Apr-12 09:33N 49°29' E 000°11'0 0.0
2014-Apr-12 08:33N 49°29' E 000°11'0 0.0
2014-Apr-12 07:33N 49°29' E 000°11'0 0.0
2014-Apr-12 06:33N 49°29' E 000°11'0 0.0
2014-Apr-12 05:33N 49°29' E 000°11'0 0.0
2014-Apr-12 04:33N 49°29' E 000°11'0 0.0
2014-Apr-12 03:33N 49°29' E 000°11'0 0.0
2014-Apr-12 02:33N 49°29' E 000°11'0 0.0
2014-Apr-12 01:33N 49°29' E 000°11'0 0.0
2014-Apr-12 00:33N 49°29' E 000°11'0 0.0
2014-Apr-11 23:33N 49°29' E 000°11'0 0.0
2014-Apr-11 22:33N 49°29' E 000°11'0 0.0
2014-Apr-11 21:33N 49°29' E 000°11'0 0.0
2014-Apr-11 20:33N 49°29' E 000°11'0 0.0
2014-Apr-11 19:33N 49°29' E 000°11'0 0.0
2014-Apr-11 18:33N 49°29' E 000°11'0 0.0
2014-Apr-11 17:33N 49°29' E 000°11'0 0.0
2014-Apr-11 16:33N 49°29' E 000°11'0 0.0
2014-Apr-11 15:33N 49°29' E 000°11'0 0.0
2014-Apr-11 14:33N 49°29' E 000°11'0 0.0
2014-Apr-11 13:33N 49°29' E 000°11'0 0.0
2014-Apr-11 12:33N 49°29' E 000°11'1 0.5
2014-Apr-11 11:33N 49°29' E 000°10'5 5.2
2014-Apr-11 10:34N 49°30' E 000°03'9 9.0
2014-Apr-11 09:33N 49°33' W 000°10'5911.7
2014-Apr-11 04:31N 50°30' E 000°12'1414.5
2014-Apr-11 03:33N 50°34' E 000°33'1515.2
2014-Apr-11 02:33N 50°42' E 000°53'1615.5
2014-Apr-11 01:31N 50°51' E 001°14'1414.7
2014-Apr-11 00:33N 51°02' E 001°29'1413.7
2014-Apr-10 23:33N 51°12' E 001°44'1313.2
2014-Apr-10 22:34N 51°23' E 001°56'1211.9
2014-Apr-10 21:32N 51°21' E 002°16'1313.3
2014-Apr-10 20:33N 51°23' E 002°36'1313.4
2014-Apr-10 19:33N 51°23' E 002°57'1414.2
2014-Apr-10 18:33N 51°24' E 003°20'1312.7
2014-Apr-10 17:33N 51°26' E 003°40'1110.9
2014-Apr-10 16:34N 51°24' E 003°57'10 9.9
2014-Apr-10 15:33N 51°23' E 004°13'3 3.2
2014-Apr-10 14:34N 51°21' E 004°17'1 0.6
2014-Apr-10 13:33N 51°21' E 004°18'4 3.9
2014-Apr-10 12:33N 51°17' E 004°21'1 1.2
2014-Apr-10 11:33N 51°16' E 004°21'0 0.0
2014-Apr-10 10:33N 51°16' E 004°21'0 0.0
2014-Apr-10 09:32N 51°16' E 004°21'0 0.0
2014-Apr-10 08:29N 51°16' E 004°21'0 0.0
2014-Apr-10 07:31N 51°16' E 004°21'0 0.0
2014-Apr-10 06:31N 51°16' E 004°21'0 0.0
2014-Apr-10 05:31N 51°16' E 004°21'0 0.0
2014-Apr-10 04:33N 51°16' E 004°21'0 0.0
2014-Apr-10 03:33N 51°16' E 004°21'0 0.0
2014-Apr-10 02:32N 51°16' E 004°21'0 0.0
2014-Apr-10 01:29N 51°16' E 004°21'0 0.0
2014-Apr-10 00:31N 51°16' E 004°21'0 0.1
2014-Apr-09 23:29N 51°16' E 004°21'1 0.6
2014-Apr-09 22:33N 51°16' E 004°21'0 0.0
2014-Apr-09 21:33N 51°16' E 004°21'0 0.0
2014-Apr-09 20:32N 51°16' E 004°21'0 0.0
2014-Apr-09 19:32N 51°16' E 004°21'0 0.0
2014-Apr-09 18:31N 51°16' E 004°21'0 0.0
2014-Apr-09 17:31N 51°16' E 004°21'0 0.0
2014-Apr-09 16:33N 51°16' E 004°21'0 0.0
2014-Apr-09 15:33N 51°16' E 004°21'0 0.0
2014-Apr-09 14:32N 51°16' E 004°21'0 0.0
2014-Apr-09 13:30N 51°16' E 004°21'0 0.0
2014-Apr-09 12:32N 51°16' E 004°21'0 0.0
2014-Apr-09 11:31N 51°16' E 004°21'0 0.0
2014-Apr-09 10:31N 51°16' E 004°21'0 0.0
2014-Apr-09 09:27N 51°16' E 004°21'0 0.0
2014-Apr-09 08:33N 51°16' E 004°21'0 0.0
2014-Apr-09 07:26N 51°16' E 004°21'0 0.0
2014-Apr-09 06:32N 51°16' E 004°21'0 0.0
2014-Apr-09 05:32N 51°16' E 004°21'0 0.0
2014-Apr-09 04:31N 51°16' E 004°21'0 0.0
2014-Apr-09 03:31N 51°16' E 004°21'0 0.0
2014-Apr-09 02:30N 51°16' E 004°21'0 0.0
2014-Apr-09 01:33N 51°16' E 004°21'  

Dump ship's entire track history

sailing weather and tide predictions

Baltic Frost — 9HA2868 — position and weather